< < Back
Terminal Aerodrome Forecast


Current Version              Previous Versions:   1  2  3  4  5  6  7  8  9  

Terminal Aerodrome Forecast

633
FTUS42 KCAE 061700
TAFCAE
TAF
KCAE 061726Z 0618/0718 05007KT P6SM SCT030 SCT050
     FM062200 02006KT P6SM SCT250
     FM070100 VRB03KT P6SM SCT250
     FM071500 VRB05KT P6SM SKC=



Latest METAR

437
SAUS80 KWBC 062100 RRA
MTRCAE
METAR KCAE 062056Z 35005KT 10SM FEW050 SCT220 09/M03 A3038 RMK AO2
SLP288 T00941033 56017


USA.gov is the U.S. government's official web portal to all federal, state and local government web resources and services.